Time;durP1;ratioP1;P1;durP2;ratioP2;P2;SDS_P1;SDS_P2;PMS_P1;PMS_P2;Temp;Humidity;BMP_temperature;BMP_pressure;BME280_temperature;BME280_humidity;BME280_pressure;Samples;Min_cycle;Max_cycle;Signal;HPM_P1;HPM_P2
2022/10/18 00:02:16;;;;;;;;;;;;;;;14.64;49.63;101533.94;4947184;28;125023;-68
2022/10/18 00:04:42;;;;;;;;;;;;;;;14.63;49.96;101535.03;4948139;28;97884;-68
2022/10/18 00:07:08;;;;;;;;;;;;;;;14.59;49.96;101537.47;4941079;28;98156;-68
2022/10/18 00:09:35;;;;;;;;;;;;;;;14.57;49.72;101545.06;4945435;28;98202;-64
2022/10/18 00:12:01;;;;;;;;;;;;;;;14.56;49.69;101543.44;4941868;28;98298;-64
2022/10/18 00:14:27;;;;;;;;;;;;;;;14.53;49.66;101551.28;4943633;28;98070;-68
2022/10/18 00:16:53;;;;;;;;;;;;;;;14.48;49.81;101546.63;4940193;28;98220;-68
2022/10/18 00:19:19;;;;;;;;;;;;;;;14.45;49.72;101550.69;4938307;28;98673;-68
2022/10/18 00:21:45;;;;;;;;;;;;;;;14.43;49.72;101552.88;4955186;28;99172;-64
2022/10/18 00:24:11;;;;;;;;;;;;;;;14.40;49.66;101556.09;4941906;28;98071;-68
2022/10/18 00:26:37;;;;;;;;;;;;;;;14.39;49.90;101559.09;4930961;28;119065;-64
2022/10/18 00:29:04;;;;;;;;;;;;;;;14.38;50.09;101562.88;4937583;28;99977;-64
2022/10/18 00:31:36;;;;;;;;;;;;;;;14.34;50.01;101562.56;4938424;28;98499;-68
2022/10/18 00:34:05;;;;;;;;;;;;;;;14.33;50.13;101566.38;4940626;28;97946;-64
2022/10/18 00:36:33;;;;;;;;;;;;;;;14.29;49.85;101550.91;4944461;28;98188;-68
2022/10/18 00:38:59;;;;;;;;;;;;;;;14.27;49.98;101547.66;4942219;28;99881;-64
2022/10/18 00:41:28;;;;;;;;;;;;;;;14.23;49.74;101555.50;4942145;28;97943;-64
2022/10/18 00:44:04;;;;;;;;;;;;;;;14.19;49.90;101560.66;4952569;28;98096;-68
2022/10/18 00:46:35;;;;;;;;;;;;;;;14.16;50.08;101561.16;4951860;28;98108;-65
2022/10/18 00:49:06;;;;;;;;;;;;;;;14.14;49.95;101557.91;4919346;28;97955;-68
2022/10/18 00:51:54;;;;;;;;;;;;;;;14.12;50.12;101562.78;4936040;28;97877;-64
2022/10/18 00:54:20;;;;;;;;;;;;;;;14.10;49.81;101564.13;4969133;28;98114;-64
2022/10/18 00:56:46;;;;;;;;;;;;;;;14.08;49.65;101556.25;4949070;28;98208;-67
2022/10/18 00:59:16;;;;;;;;;;;;;;;14.06;50.15;101563.00;4938699;28;126991;-67
2022/10/18 01:01:42;;;;;;;;;;;;;;;14.03;50.08;101550.81;4960908;28;98792;-64
2022/10/18 01:04:08;;;;;;;;;;;;;;;14.01;50.05;101558.38;4959731;28;101561;-64
2022/10/18 01:06:40;;;;;;;;;;;;;;;13.98;50.12;101564.31;4940651;28;98804;-66
2022/10/18 01:09:17;;;;;;;;;;;;;;;13.94;49.80;101566.75;4935335;28;97922;-64
2022/10/18 01:12:06;;;;;;;;;;;;;;;13.92;49.89;101566.22;4946952;28;98059;-64
2022/10/18 01:14:42;;;;;;;;;;;;;;;13.91;49.95;101572.72;4939940;28;98095;-64
2022/10/18 01:17:13;;;;;;;;;;;;;;;13.89;49.80;101574.88;4961260;28;98616;-64
2022/10/18 01:20:03;;;;;;;;;;;;;;;13.88;50.12;101569.72;4959197;28;99782;-68
2022/10/18 01:22:36;;;;;;;;;;;;;;;13.85;49.94;101572.94;4957927;28;97929;-64
2022/10/18 01:25:23;;;;;;;;;;;;;;;13.84;50.13;101574.03;4942656;28;98198;-64
2022/10/18 01:28:00;;;;;;;;;;;;;;;13.80;49.83;101568.31;4972240;28;98208;-64
2022/10/18 01:30:31;;;;;;;;;;;;;;;13.78;49.77;101570.47;4964706;28;98416;-65
2022/10/18 01:33:16;;;;;;;;;;;;;;;13.75;49.82;101577.22;4958797;28;107115;-68
2022/10/18 01:35:46;;;;;;;;;;;;;;;13.72;49.96;101576.94;4956241;28;99335;-64
2022/10/18 01:38:15;;;;;;;;;;;;;;;13.69;49.87;101578.25;4944672;28;106258;-64
2022/10/18 01:40:41;;;;;;;;;;;;;;;13.66;49.78;101576.06;4946061;28;100020;-64
2022/10/18 01:43:07;;;;;;;;;;;;;;;13.63;50.09;101576.59;4943876;28;98140;-64
2022/10/18 01:45:33;;;;;;;;;;;;;;;13.61;49.98;101577.94;4947509;28;98187;-64
2022/10/18 01:47:59;;;;;;;;;;;;;;;13.59;50.05;101574.66;4974632;28;120449;-68
2022/10/18 01:50:33;;;;;;;;;;;;;;;13.58;49.84;101575.75;4936701;28;100097;-64
2022/10/18 01:52:59;;;;;;;;;;;;;;;13.55;50.13;101570.84;4944560;28;98050;-68
2022/10/18 01:55:36;;;;;;;;;;;;;;;13.53;50.02;101575.72;4944657;28;98073;-64
2022/10/18 01:58:28;;;;;;;;;;;;;;;13.50;50.01;101575.16;4944271;28;112868;-67
2022/10/18 02:01:02;;;;;;;;;;;;;;;13.46;49.91;101567.81;4958575;28;100242;-68
2022/10/18 02:03:28;;;;;;;;;;;;;;;13.44;49.91;101572.66;4939261;28;97998;-67
2022/10/18 02:06:01;;;;;;;;;;;;;;;13.42;50.30;101569.41;4944605;28;97888;-68
2022/10/18 02:08:38;;;;;;;;;;;;;;;13.42;49.97;101569.41;4960293;28;97931;-64
2022/10/18 02:11:06;;;;;;;;;;;;;;;13.41;50.13;101567.78;4952278;28;98634;-68
2022/10/18 02:13:40;;;;;;;;;;;;;;;13.40;49.98;101569.69;4944558;28;98055;-67
2022/10/18 02:16:15;;;;;;;;;;;;;;;13.39;50.02;101564.50;4944441;28;98434;-67
2022/10/18 02:18:49;;;;;;;;;;;;;;;13.38;50.20;101573.72;4922474;28;97958;-68
2022/10/18 02:21:16;;;;;;;;;;;;;;;13.37;50.19;101575.59;4955010;28;98162;-67
2022/10/18 02:23:43;;;;;;;;;;;;;;;13.36;50.07;101573.13;4929225;28;98304;-64
2022/10/18 02:26:09;;;;;;;;;;;;;;;13.35;50.16;101580.44;4952398;28;98014;-64
2022/10/18 02:28:35;;;;;;;;;;;;;;;13.37;50.13;101574.78;4942321;28;116485;-68
2022/10/18 02:31:25;;;;;;;;;;;;;;;13.35;50.01;101577.75;4935373;28;98002;-68
2022/10/18 02:34:23;;;;;;;;;;;;;;;13.31;50.21;101570.41;4950243;28;97980;-67
2022/10/18 02:36:54;;;;;;;;;;;;;;;13.27;50.17;101579.03;4933446;28;98204;-68
2022/10/18 02:39:28;;;;;;;;;;;;;;;13.24;50.25;101571.44;4945489;28;98006;-68
2022/10/18 02:41:55;;;;;;;;;;;;;;;13.21;49.90;101566.50;4929924;28;97819;-68
2022/10/18 02:44:21;;;;;;;;;;;;;;;13.19;49.95;101573.25;4943416;28;99301;-65
2022/10/18 02:46:47;;;;;;;;;;;;;;;13.17;49.99;101573.53;4954612;28;98051;-64
2022/10/18 02:49:13;;;;;;;;;;;;;;;13.16;50.16;101577.28;4942561;28;97923;-64
2022/10/18 02:51:39;;;;;;;;;;;;;;;13.15;50.06;101583.78;4945899;28;100110;-64
2022/10/18 02:54:05;;;;;;;;;;;;;;;13.15;50.00;101572.94;4938274;28;98674;-67
2022/10/18 02:56:31;;;;;;;;;;;;;;;13.15;50.06;101575.66;4947169;28;98050;-64
2022/10/18 02:58:57;;;;;;;;;;;;;;;13.15;50.13;101582.97;4926901;28;109453;-64
2022/10/18 03:01:23;;;;;;;;;;;;;;;13.14;50.00;101579.44;4942481;28;99665;-64
2022/10/18 03:03:49;;;;;;;;;;;;;;;13.15;50.16;101589.19;4953513;28;99122;-64
2022/10/18 03:06:15;;;;;;;;;;;;;;;13.16;50.22;101590.00;4943160;28;98310;-68
2022/10/18 03:08:41;;;;;;;;;;;;;;;13.17;50.14;101594.38;4936628;28;97970;-68
2022/10/18 03:11:08;;;;;;;;;;;;;;;13.18;49.95;101587.88;4940747;28;119468;-64
2022/10/18 03:13:34;;;;;;;;;;;;;;;13.18;50.17;101593.28;4942138;28;97981;-64
2022/10/18 03:16:00;;;;;;;;;;;;;;;13.18;50.14;101590.56;4939350;28;97848;-64
2022/10/18 03:18:26;;;;;;;;;;;;;;;13.19;49.86;101589.50;4943636;28;98042;-64
2022/10/18 03:20:52;;;;;;;;;;;;;;;13.21;50.04;101599.00;4942705;28;98174;-64
2022/10/18 03:23:18;;;;;;;;;;;;;;;13.22;50.17;101589.81;4942208;28;97972;-67
2022/10/18 03:25:45;;;;;;;;;;;;;;;13.24;49.98;101592.25;4945054;28;112770;-68
2022/10/18 03:28:10;;;;;;;;;;;;;;;13.26;50.14;101603.66;4957798;28;98744;-67
2022/10/18 03:30:37;;;;;;;;;;;;;;;13.28;49.96;101598.78;4936263;28;105650;-64
2022/10/18 03:33:05;;;;;;;;;;;;;;;13.31;50.11;101595.59;4941371;28;97765;-64
2022/10/18 03:35:31;;;;;;;;;;;;;;;13.31;49.96;101590.16;4921636;28;98290;-64
2022/10/18 03:37:57;;;;;;;;;;;;;;;13.33;49.99;101596.16;4945380;28;98261;-64
2022/10/18 03:40:23;;;;;;;;;;;;;;;13.34;50.25;101588.84;4943026;28;98197;-68
2022/10/18 03:42:49;;;;;;;;;;;;;;;13.36;50.15;101590.22;4942127;28;99380;-64
2022/10/18 03:45:15;;;;;;;;;;;;;;;13.38;49.87;101596.19;4941176;28;116351;-64
2022/10/18 03:47:41;;;;;;;;;;;;;;;13.40;50.19;101595.91;4940216;27;98088;-68
2022/10/18 03:50:07;;;;;;;;;;;;;;;13.42;50.20;101599.19;4951430;28;98256;-64
2022/10/18 03:52:33;;;;;;;;;;;;;;;13.43;49.96;101592.69;4942582;28;98575;-64
2022/10/18 03:54:59;;;;;;;;;;;;;;;13.46;49.87;101603.03;4945622;28;98212;-64
2022/10/18 03:57:25;;;;;;;;;;;;;;;13.48;49.82;101606.31;4948716;28;98640;-64
2022/10/18 03:59:51;;;;;;;;;;;;;;;13.50;50.35;101602.25;4943361;28;98134;-67
2022/10/18 04:02:17;;;;;;;;;;;;;;;13.52;49.97;101602.00;4942673;28;97942;-64
2022/10/18 04:04:43;;;;;;;;;;;;;;;13.54;50.20;101605.25;4937825;28;97994;-64
2022/10/18 04:07:09;;;;;;;;;;;;;;;13.57;49.97;101607.44;4945170;28;98473;-64
2022/10/18 04:09:35;;;;;;;;;;;;;;;13.58;50.21;101603.66;4944329;28;99986;-67
2022/10/18 04:12:02;;;;;;;;;;;;;;;13.61;49.97;101605.03;4936860;28;98122;-64
2022/10/18 04:14:28;;;;;;;;;;;;;;;13.62;49.96;101602.06;4942371;28;98466;-67
2022/10/18 04:16:54;;;;;;;;;;;;;;;13.64;50.03;101608.03;4942191;28;98767;-64
2022/10/18 04:19:20;;;;;;;;;;;;;;;13.65;49.99;101606.16;4943716;27;98127;-64
2022/10/18 04:21:46;;;;;;;;;;;;;;;13.66;49.97;101600.47;4958786;28;97824;-68
2022/10/18 04:24:16;;;;;;;;;;;;;;;13.66;49.97;101599.66;4941909;28;98084;-68
2022/10/18 04:26:43;;;;;;;;;;;;;;;13.66;50.15;101603.16;4955277;28;98068;-68
2022/10/18 04:29:09;;;;;;;;;;;;;;;13.69;50.11;101593.72;4929786;28;100070;-67
2022/10/18 04:31:35;;;;;;;;;;;;;;;13.68;49.95;101587.47;4947014;28;109465;-68
2022/10/18 04:34:03;;;;;;;;;;;;;;;13.70;50.37;101589.91;4954358;28;97760;-68
2022/10/18 04:36:30;;;;;;;;;;;;;;;13.72;50.00;101591.31;4946588;28;98299;-68
2022/10/18 04:38:56;;;;;;;;;;;;;;;13.75;50.36;101587.22;4945666;28;97833;-68
2022/10/18 04:41:22;;;;;;;;;;;;;;;13.78;49.92;101592.13;4937509;28;98658;-68
2022/10/18 04:43:51;;;;;;;;;;;;;;;13.80;50.36;101583.75;4928335;28;118277;-68
2022/10/18 04:46:18;;;;;;;;;;;;;;;13.81;50.21;101582.69;4955095;28;97950;-67
2022/10/18 04:48:44;;;;;;;;;;;;;;;13.84;49.93;101574.84;4954509;28;97942;-68
2022/10/18 04:51:10;;;;;;;;;;;;;;;13.84;50.41;101574.84;4960739;28;98231;-68
2022/10/18 04:53:37;;;;;;;;;;;;;;;13.85;50.15;101579.19;4930624;28;98093;-68
2022/10/18 04:56:03;;;;;;;;;;;;;;;13.86;50.04;101574.56;4940117;28;98144;-68
2022/10/18 04:58:29;;;;;;;;;;;;;;;13.88;49.98;101577.84;4946646;28;98159;-67
2022/10/18 05:00:56;;;;;;;;;;;;;;;13.89;49.94;101580.28;4939127;28;99364;-68
2022/10/18 05:03:22;;;;;;;;;;;;;;;13.90;49.95;101575.66;4949321;28;98299;-68
2022/10/18 05:05:48;;;;;;;;;;;;;;;13.93;50.29;101577.88;4961405;28;98034;-67
2022/10/18 05:08:15;;;;;;;;;;;;;;;13.95;50.06;101575.69;4959794;28;99858;-68
2022/10/18 05:10:41;;;;;;;;;;;;;;;13.96;50.35;101580.88;4937825;28;97957;-68
2022/10/18 05:13:07;;;;;;;;;;;;;;;13.99;50.36;101579.53;4948770;28;98211;-68
2022/10/18 05:15:33;;;;;;;;;;;;;;;14.00;50.39;101576.56;4946588;28;128251;-68
2022/10/18 05:17:59;;;;;;;;;;;;;;;14.02;50.31;101579.00;4939885;28;98390;-68
2022/10/18 05:20:25;;;;;;;;;;;;;;;14.05;50.04;101583.06;4943650;28;124070;-68
2022/10/18 05:22:51;;;;;;;;;;;;;;;14.07;50.06;101589.03;4952238;28;98140;-68
2022/10/18 05:25:18;;;;;;;;;;;;;;;14.09;50.35;101582.28;4941545;28;98272;-68
2022/10/18 05:27:44;;;;;;;;;;;;;;;14.11;49.93;101590.97;4945016;27;103344;-68
2022/10/18 05:30:10;;;;;;;;;;;;;;;14.14;50.47;101587.72;4947227;28;97801;-68
2022/10/18 05:32:37;;;;;;;;;;;;;;;14.16;50.03;101579.34;4951069;28;98287;-67
2022/10/18 05:35:03;;;;;;;;;;;;;;;14.18;50.07;101583.41;4938642;28;98003;-68
2022/10/18 05:37:30;;;;;;;;;;;;;;;14.21;50.26;101580.16;4953705;28;98177;-68
2022/10/18 05:39:57;;;;;;;;;;;;;;;14.21;50.43;101582.88;4955516;28;97997;-68
2022/10/18 05:42:24;;;;;;;;;;;;;;;14.24;50.27;101584.25;4963356;28;98039;-68
2022/10/18 05:44:50;;;;;;;;;;;;;;;14.25;50.01;101583.97;4931968;28;98263;-68
2022/10/18 05:47:16;;;;;;;;;;;;;;;14.28;50.41;101581.84;4949974;28;100008;-68
2022/10/18 05:49:42;;;;;;;;;;;;;;;14.27;50.40;101585.63;4948750;28;98368;-68
2022/10/18 05:52:08;;;;;;;;;;;;;;;14.28;50.32;101579.13;4955323;28;97842;-68
2022/10/18 05:54:35;;;;;;;;;;;;;;;14.28;50.45;101574.50;4956005;28;98618;-68
2022/10/18 05:57:01;;;;;;;;;;;;;;;14.30;49.96;101582.38;4945332;28;98225;-68
2022/10/18 05:59:27;;;;;;;;;;;;;;;14.32;50.39;101586.44;4950351;28;98575;-68
2022/10/18 06:01:54;;;;;;;;;;;;;;;14.33;50.41;101587.28;4946297;28;98703;-68
2022/10/18 06:04:21;;;;;;;;;;;;;;;14.34;49.98;101592.41;4944776;28;98155;-68
2022/10/18 06:06:47;;;;;;;;;;;;;;;14.36;50.42;101584.84;4942703;28;98291;-68
2022/10/18 06:09:13;;;;;;;;;;;;;;;14.36;50.30;101584.84;4947304;28;97948;-68
2022/10/18 06:11:39;;;;;;;;;;;;;;;14.37;50.09;101593.78;4947198;28;98065;-68
2022/10/18 06:14:06;;;;;;;;;;;;;;;14.38;50.51;101592.69;4961519;28;99171;-68
2022/10/18 06:16:32;;;;;;;;;;;;;;;14.39;50.21;101592.47;4957285;28;100495;-68
2022/10/18 06:18:58;;;;;;;;;;;;;;;14.39;50.45;101586.22;4943520;28;125705;-68
2022/10/18 06:21:25;;;;;;;;;;;;;;;14.39;50.14;101578.91;4937007;28;98276;-64
2022/10/18 06:23:57;;;;;;;;;;;;;;;14.40;50.43;101577.81;4927663;28;97978;-68
2022/10/18 06:26:23;;;;;;;;;;;;;;;14.43;50.39;101576.47;4935646;28;98084;-64
2022/10/18 06:28:49;;;;;;;;;;;;;;;14.45;50.48;101566.16;4944269;28;108914;-67
2022/10/18 06:31:16;;;;;;;;;;;;;;;14.48;50.22;101571.84;4946117;28;98131;-65
2022/10/18 06:33:42;;;;;;;;;;;;;;;14.52;50.38;101572.19;4927167;28;98298;-68
2022/10/18 06:36:13;;;;;;;;;;;;;;;14.54;50.18;101577.31;4939565;28;97861;-68
2022/10/18 06:38:40;;;;;;;;;;;;;;;14.55;50.32;101577.06;4943429;28;97928;-64
2022/10/18 06:41:06;;;;;;;;;;;;;;;14.57;50.35;101572.19;4941646;28;97847;-68
2022/10/18 06:43:32;;;;;;;;;;;;;;;14.58;50.45;101573.00;4944429;28;97976;-68
2022/10/18 06:45:59;;;;;;;;;;;;;;;14.59;50.05;101572.75;4926226;28;108274;-67
2022/10/18 06:48:26;;;;;;;;;;;;;;;14.61;50.11;101561.63;4953546;28;98261;-68
2022/10/18 06:50:56;;;;;;;;;;;;;;;14.63;50.33;101565.69;4945067;28;97948;-68
2022/10/18 06:53:27;;;;;;;;;;;;;;;14.67;50.28;101560.56;4956516;28;98697;-68
2022/10/18 06:55:59;;;;;;;;;;;;;;;14.69;50.42;101571.94;4944674;28;117812;-64
2022/10/18 06:58:25;;;;;;;;;;;;;;;14.70;50.49;101571.69;4943760;28;98284;-64
2022/10/18 07:00:51;;;;;;;;;;;;;;;14.72;50.34;101583.06;4942129;28;119288;-64
2022/10/18 07:03:17;;;;;;;;;;;;;;;14.74;50.46;101571.97;4941801;28;97943;-64
2022/10/18 07:05:43;;;;;;;;;;;;;;;14.78;50.17;101572.25;4938138;28;97860;-67
2022/10/18 07:08:09;;;;;;;;;;;;;;;14.80;50.07;101572.78;4940209;28;99154;-64
2022/10/18 07:10:36;;;;;;;;;;;;;;;14.85;50.04;101568.16;4933709;28;97892;-68
2022/10/18 07:13:01;;;;;;;;;;;;;;;14.91;50.28;101566.28;4937325;28;98205;-64
2022/10/18 07:15:28;;;;;;;;;;;;;;;14.97;49.97;101566.03;4936877;28;100161;-67
2022/10/18 07:17:53;;;;;;;;;;;;;;;15.04;50.31;101567.66;4936680;28;97981;-64
2022/10/18 07:20:19;;;;;;;;;;;;;;;15.14;50.02;101568.47;4951139;28;98580;-64
2022/10/18 07:22:46;;;;;;;;;;;;;;;15.25;50.01;101554.88;4937888;28;130318;-68
2022/10/18 07:25:12;;;;;;;;;;;;;;;15.34;49.78;101567.66;4934492;28;98118;-64
2022/10/18 07:27:41;;;;;;;;;;;;;;;15.38;49.77;101570.66;4942067;28;98048;-64
2022/10/18 07:30:08;;;;;;;;;;;;;;;15.38;49.92;101578.81;4932976;28;98177;-64
2022/10/18 07:32:34;;;;;;;;;;;;;;;15.41;49.68;101575.53;4939413;28;98024;-68
2022/10/18 07:35:01;;;;;;;;;;;;;;;15.44;49.65;101564.94;4938418;28;115176;-68
2022/10/18 07:37:27;;;;;;;;;;;;;;;15.41;49.83;101573.63;4940722;28;98213;-68
2022/10/18 07:39:53;;;;;;;;;;;;;;;15.39;50.23;101583.13;4957519;28;98104;-64
2022/10/18 07:42:19;;;;;;;;;;;;;;;15.36;50.01;101576.34;4956773;28;98359;-68
2022/10/18 07:44:45;;;;;;;;;;;;;;;15.38;50.32;101565.22;4948569;28;98348;-67
2022/10/18 07:47:11;;;;;;;;;;;;;;;15.40;50.30;101569.28;4944715;28;98371;-64
2022/10/18 07:49:37;;;;;;;;;;;;;;;15.42;49.88;101569.81;4936425;28;98318;-64
2022/10/18 07:52:03;;;;;;;;;;;;;;;15.42;50.33;101564.41;4940069;28;123921;-68
2022/10/18 07:54:29;;;;;;;;;;;;;;;15.43;50.57;101573.34;4934045;28;102364;-64
2022/10/18 07:56:55;;;;;;;;;;;;;;;15.40;50.28;101568.47;4938082;28;99590;-64
2022/10/18 07:59:22;;;;;;;;;;;;;;;15.36;50.47;101570.91;4935353;28;98366;-64
2022/10/18 08:01:49;;;;;;;;;;;;;;;15.32;50.23;101569.81;4951216;28;98441;-64
2022/10/18 08:04:15;;;;;;;;;;;;;;;15.32;50.23;101569.81;4936574;28;98768;-64
2022/10/18 08:06:41;;;;;;;;;;;;;;;15.37;50.15;101545.41;4915356;28;98181;-64
2022/10/18 08:09:08;;;;;;;;;;;;;;;15.48;50.10;101548.88;4921096;28;97862;-64
2022/10/18 08:11:34;;;;;;;;;;;;;;;15.56;50.09;101544.81;4923274;28;97990;-64
2022/10/18 08:14:01;;;;;;;;;;;;;;;15.59;50.20;101541.53;4935877;28;120128;-64
2022/10/18 08:16:27;;;;;;;;;;;;;;;15.65;50.29;101532.34;4946777;28;97985;-64
2022/10/18 08:18:55;;;;;;;;;;;;;;;15.67;50.01;101538.28;4936879;28;99575;-64
2022/10/18 08:21:22;;;;;;;;;;;;;;;15.65;50.09;101533.16;4945618;28;98951;-64
2022/10/18 08:23:48;;;;;;;;;;;;;;;15.64;50.10;101538.81;4951269;28;98524;-64
2022/10/18 08:26:16;;;;;;;;;;;;;;;15.62;50.34;101538.28;4931006;28;99217;-65
2022/10/18 08:28:42;;;;;;;;;;;;;;;15.60;50.21;101540.44;4936770;28;98092;-64
2022/10/18 08:31:13;;;;;;;;;;;;;;;15.59;50.37;101536.91;4922637;28;97966;-64
2022/10/18 08:33:39;;;;;;;;;;;;;;;15.59;50.46;101528.75;4927831;28;98433;-64
2022/10/18 08:36:07;;;;;;;;;;;;;;;15.64;50.35;101525.22;4945127;28;97914;-64
2022/10/18 08:38:34;;;;;;;;;;;;;;;15.65;50.24;101526.91;4947517;28;98208;-64
2022/10/18 08:41:13;;;;;;;;;;;;;;;15.66;50.31;101534.75;4948160;28;98124;-64
2022/10/18 08:43:46;;;;;;;;;;;;;;;15.68;50.38;101526.34;4957195;28;98615;-64
2022/10/18 08:46:12;;;;;;;;;;;;;;;15.71;50.47;101520.34;4940015;28;97749;-64
2022/10/18 08:48:46;;;;;;;;;;;;;;;15.75;50.05;101509.72;4937225;28;98571;-64
2022/10/18 08:51:30;;;;;;;;;;;;;;;15.81;50.17;101500.47;4932822;28;98081;-64
2022/10/18 08:54:03;;;;;;;;;;;;;;;15.90;49.96;101496.91;4949565;28;113330;-67
2022/10/18 08:56:30;;;;;;;;;;;;;;;15.94;50.09;101500.69;4945742;28;97947;-68
2022/10/18 08:58:56;;;;;;;;;;;;;;;15.97;49.93;101493.88;4944549;28;97927;-68
2022/10/18 09:01:48;;;;;;;;;;;;;;;16.02;50.04;101493.84;4942241;28;98176;-68
2022/10/18 09:04:36;;;;;;;;;;;;;;;16.04;49.95;101488.97;4950124;28;99659;-68
2022/10/18 09:07:33;;;;;;;;;;;;;;;16.04;49.98;101491.69;4926897;28;99842;-68
2022/10/18 09:10:14;;;;;;;;;;;;;;;16.05;50.25;101487.06;4967125;28;98017;-68
2022/10/18 09:12:52;;;;;;;;;;;;;;;16.04;50.29;101496.31;4923908;28;97906;-68
2022/10/18 09:15:39;;;;;;;;;;;;;;;16.01;50.13;101502.31;4961556;28;99690;-68
2022/10/18 09:18:18;;;;;;;;;;;;;;;15.99;50.37;101505.28;4960204;28;99372;-64
2022/10/18 09:20:57;;;;;;;;;;;;;;;15.98;50.45;101505.56;4941573;28;98087;-64
2022/10/18 09:23:38;;;;;;;;;;;;;;;15.96;50.27;101500.44;4953883;28;99946;-64
2022/10/18 09:26:20;;;;;;;;;;;;;;;15.97;50.38;101499.31;4952277;28;97797;-64
2022/10/18 09:28:59;;;;;;;;;;;;;;;16.07;50.14;101487.56;4923638;28;98173;-64
2022/10/18 09:31:52;;;;;;;;;;;;;;;16.16;50.01;101485.91;4953259;28;98492;-64
2022/10/18 09:34:52;;;;;;;;;;;;;;;16.20;50.05;101487.00;4936942;28;99804;-64
2022/10/18 09:37:19;;;;;;;;;;;;;;;16.25;50.17;101481.50;4921844;28;98015;-64
2022/10/18 09:39:45;;;;;;;;;;;;;;;16.29;50.22;101479.84;4950130;28;109698;-68
2022/10/18 09:42:25;;;;;;;;;;;;;;;16.32;50.11;101476.56;4954652;28;98260;-68
2022/10/18 09:45:11;;;;;;;;;;;;;;;16.43;49.99;101480.88;4953249;28;98547;-68
2022/10/18 09:47:40;;;;;;;;;;;;;;;16.54;49.75;101491.66;4924058;28;98618;-65
2022/10/18 09:50:26;;;;;;;;;;;;;;;16.50;49.99;101506.94;4940897;28;98150;-65
2022/10/18 09:53:05;;;;;;;;;;;;;;;16.40;50.26;101516.78;4967544;28;98485;-64
2022/10/18 09:55:35;;;;;;;;;;;;;;;16.29;50.36;101533.44;4944937;28;98205;-65
2022/10/18 09:58:01;;;;;;;;;;;;;;;16.20;50.41;101517.72;4906760;28;97905;-64
2022/10/18 10:00:53;;;;;;;;;;;;;;;16.14;50.52;101509.84;4939822;28;98169;-68
2022/10/18 10:03:19;;;;;;;;;;;;;;;16.07;50.61;101479.41;4948067;28;98061;-65
2022/10/18 10:05:45;;;;;;;;;;;;;;;16.01;50.81;101461.53;4954644;28;106008;-68
2022/10/18 10:08:11;;;;;;;;;;;;;;;15.97;50.76;101455.00;4951660;28;111437;-68
2022/10/18 10:10:38;;;;;;;;;;;;;;;15.92;50.79;101453.13;4935446;28;97997;-66
2022/10/18 10:13:34;;;;;;;;;;;;;;;15.86;50.80;101468.66;4940789;28;98180;-67
2022/10/18 10:16:01;;;;;;;;;;;;;;;15.78;50.91;101506.47;4935030;28;123107;-64
2022/10/18 10:18:30;;;;;;;;;;;;;;;15.72;50.91;101530.16;4940424;28;100069;-67
2022/10/18 10:21:01;;;;;;;;;;;;;;;15.69;51.06;101563.31;4941644;28;98420;-66
2022/10/18 10:23:29;;;;;;;;;;;;;;;15.66;50.97;101591.84;4933992;28;98101;-64
2022/10/18 10:26:19;;;;;;;;;;;;;;;15.64;50.83;101604.88;4938125;28;98168;-67
2022/10/18 10:28:47;;;;;;;;;;;;;;;15.65;51.00;101590.22;4949509;28;98409;-67
2022/10/18 10:31:32;;;;;;;;;;;;;;;15.66;51.03;101544.81;4938204;28;97916;-67
2022/10/18 10:34:04;;;;;;;;;;;;;;;15.65;50.93;101529.63;4940886;28;100716;-64
2022/10/18 10:36:30;;;;;;;;;;;;;;;15.58;50.87;101540.72;4936388;28;97839;-67
2022/10/18 10:39:12;;;;;;;;;;;;;;;15.57;50.97;101532.88;4953521;28;98360;-67
2022/10/18 10:41:39;;;;;;;;;;;;;;;15.60;51.03;101507.84;4942943;28;98039;-64
2022/10/18 10:44:15;;;;;;;;;;;;;;;15.61;50.73;101501.34;4933929;28;97920;-67
2022/10/18 10:46:41;;;;;;;;;;;;;;;15.63;50.78;101502.66;4945776;28;98089;-67
2022/10/18 10:49:18;;;;;;;;;;;;;;;15.68;50.75;101494.56;4934070;28;98780;-64
2022/10/18 10:51:44;;;;;;;;;;;;;;;15.77;50.67;101494.78;4950244;28;98263;-69
2022/10/18 10:54:19;;;;;;;;;;;;;;;15.81;50.58;101495.03;4939152;28;97871;-68
2022/10/18 10:57:10;;;;;;;;;;;;;;;15.81;50.72;101511.34;4943874;28;99719;-67
2022/10/18 10:59:56;;;;;;;;;;;;;;;15.82;50.46;101521.13;4967352;27;97995;-68
2022/10/18 11:02:32;;;;;;;;;;;;;;;15.83;50.63;101534.44;4939670;28;98284;-68
2022/10/18 11:05:19;;;;;;;;;;;;;;;15.83;50.64;101539.88;4939656;28;99068;-65
2022/10/18 11:07:45;;;;;;;;;;;;;;;15.84;50.82;101541.53;4945894;28;98056;-65
2022/10/18 11:10:25;;;;;;;;;;;;;;;15.87;50.79;101543.66;4956577;28;99347;-64
2022/10/18 11:13:03;;;;;;;;;;;;;;;15.90;50.64;101537.69;4949049;28;98650;-64
2022/10/18 11:15:34;;;;;;;;;;;;;;;16.01;50.55;101530.31;4964371;28;98079;-67
2022/10/18 11:18:18;;;;;;;;;;;;;;;16.12;50.43;101528.38;4938217;28;97987;-67
2022/10/18 11:20:57;;;;;;;;;;;;;;;16.18;50.52;101519.88;4954907;28;98108;-64
2022/10/18 11:23:27;;;;;;;;;;;;;;;16.25;50.38;101543.25;4936334;28;107676;-64
2022/10/18 11:26:02;;;;;;;;;;;;;;;16.33;50.40;101546.22;4940296;28;98229;-68
2022/10/18 11:28:34;;;;;;;;;;;;;;;16.44;50.35;101544.25;4950951;28;99263;-64
2022/10/18 11:31:39;;;;;;;;;;;;;;;16.48;50.24;101541.78;4952143;28;99617;-64
2022/10/18 11:34:37;;;;;;;;;;;;;;;16.54;50.27;101543.38;4938074;28;108018;-67
2022/10/18 11:37:35;;;;;;;;;;;;;;;16.53;50.37;101547.19;4963738;28;97958;-68
2022/10/18 11:40:32;;;;;;;;;;;;;;;16.49;50.47;101543.41;4948239;28;97947;-65
2022/10/18 11:43:38;;;;;;;;;;;;;;;16.45;50.33;101543.16;4969792;28;98596;-69
2022/10/18 11:46:27;;;;;;;;;;;;;;;16.42;50.51;101546.44;4948350;28;98072;-68
2022/10/18 11:49:06;;;;;;;;;;;;;;;16.41;50.45;101542.09;4949158;28;98240;-68
2022/10/18 11:51:58;;;;;;;;;;;;;;;16.45;50.66;101540.44;4937413;28;98255;-68
2022/10/18 11:54:27;;;;;;;;;;;;;;;16.48;50.48;101539.06;4938773;28;98062;-68
2022/10/18 11:57:00;;;;;;;;;;;;;;;16.50;50.43;101537.69;4954057;28;97878;-65
2022/10/18 11:59:51;;;;;;;;;;;;;;;16.53;50.54;101537.13;4951360;28;98401;-68
2022/10/18 12:02:30;;;;;;;;;;;;;;;16.55;50.55;101536.84;4948116;28;98300;-68
2022/10/18 12:04:57;;;;;;;;;;;;;;;16.57;50.52;101540.09;4969562;28;99462;-65
2022/10/18 12:07:24;;;;;;;;;;;;;;;16.60;50.47;101544.97;4953991;28;103108;-68
2022/10/18 12:09:50;;;;;;;;;;;;;;;16.61;50.38;101547.41;4921793;28;97978;-68
2022/10/18 12:12:28;;;;;;;;;;;;;;;16.60;50.43;101550.44;4936696;28;98258;-68
2022/10/18 12:14:57;;;;;;;;;;;;;;;16.60;50.63;101558.59;4934326;28;98068;-68
2022/10/18 12:17:23;;;;;;;;;;;;;;;16.61;50.59;101560.22;4934942;28;98053;-64
2022/10/18 12:19:50;;;;;;;;;;;;;;;16.64;50.57;101563.19;4966283;27;98198;-68
2022/10/18 12:22:34;;;;;;;;;;;;;;;16.69;50.46;101556.88;4937230;28;99882;-68
2022/10/18 12:25:00;;;;;;;;;;;;;;;16.72;50.54;101560.97;4939287;28;110186;-64
2022/10/18 12:28:01;;;;;;;;;;;;;;;16.67;50.58;101565.34;4943591;28;98119;-68
2022/10/18 12:30:30;;;;;;;;;;;;;;;16.64;50.62;101568.63;4940467;28;98128;-68
2022/10/18 12:33:06;;;;;;;;;;;;;;;16.68;50.55;101568.88;4953061;28;99633;-68
2022/10/18 12:35:38;;;;;;;;;;;;;;;16.72;50.58;101571.84;4954127;28;97906;-67
2022/10/18 12:38:12;;;;;;;;;;;;;;;16.73;50.59;101566.16;4940396;28;104812;-65
2022/10/18 12:40:42;;;;;;;;;;;;;;;16.75;50.62;101566.69;4955271;28;98320;-68
2022/10/18 12:43:09;;;;;;;;;;;;;;;16.76;50.47;101562.88;4940605;28;97986;-68
2022/10/18 12:45:47;;;;;;;;;;;;;;;16.79;50.49;101554.16;4934365;28;98021;-68
2022/10/18 12:48:31;;;;;;;;;;;;;;;16.83;50.41;101547.03;4960139;28;98960;-64
2022/10/18 12:51:04;;;;;;;;;;;;;;;16.92;50.35;101548.06;4936362;28;97859;-65
2022/10/18 12:53:30;;;;;;;;;;;;;;;16.97;50.42;101546.38;4958325;28;98109;-65
2022/10/18 12:56:16;;;;;;;;;;;;;;;16.95;50.35;101552.13;4966344;28;99561;-69